Time;durP1;ratioP1;P1;durP2;ratioP2;P2;SDS_P1;SDS_P2;PMS_P1;PMS_P2;Temp;Humidity;BMP_temperature;BMP_pressure;BME280_temperature;BME280_humidity;BME280_pressure;Samples;Min_cycle;Max_cycle;Signal;HPM_P1;HPM_P2
2023/06/23 00:04:05;;;;;;;8.90;4.40;;;;;;;22.19;55.68;100289.44;223828;1263;138270;-82
2023/06/23 00:09:13;;;;;;;9.20;4.30;;;;;;;22.21;55.91;100283.54;223055;1263;140060;-82
2023/06/23 00:14:13;;;;;;;7.90;4.10;;;;;;;22.20;55.86;100269.78;223699;1265;138180;-82
2023/06/23 00:19:14;;;;;;;8.80;4.20;;;;;;;22.19;56.02;100257.64;221907;1264;141501;-82
2023/06/23 00:24:14;;;;;;;10.00;4.70;;;;;;;22.18;55.83;100255.36;223681;1264;137966;-83
2023/06/23 00:29:15;;;;;;;9.60;4.50;;;;;;;22.18;55.96;100253.36;223189;1264;159459;-82
2023/06/23 00:34:15;;;;;;;8.50;4.60;;;;;;;22.19;56.05;100274.95;223823;1264;138531;-82
2023/06/23 00:39:16;;;;;;;12.50;5.60;;;;;;;22.20;56.28;100319.52;223240;1264;139974;-81
2023/06/23 00:44:16;;;;;;;10.90;4.90;;;;;;;22.20;58.41;100372.39;223771;1264;138477;-80
2023/06/23 00:49:17;;;;;;;17.80;7.20;;;;;;;22.03;63.33;100394.00;223371;1263;140417;-82
2023/06/23 00:54:18;;;;;;;17.00;6.10;;;;;;;21.61;68.97;100386.27;223763;1264;138306;-82
2023/06/23 00:59:18;;;;;;;15.20;5.90;;;;;;;21.26;72.17;100389.61;222981;1264;140357;-81
2023/06/23 01:04:22;;;;;;;13.70;6.00;;;;;;;20.92;73.97;100381.67;223740;1265;139459;-81
2023/06/23 01:09:29;;;;;;;13.40;5.30;;;;;;;20.82;76.29;100384.48;223184;1265;141435;-81
2023/06/23 01:14:45;;;;;;;17.00;6.50;;;;;;;20.67;76.93;100378.39;223804;1265;139451;-83
2023/06/23 01:20:12;;;;;;;16.40;6.50;;;;;;;20.44;78.98;100376.46;223194;1264;142159;-84
2023/06/23 01:25:29;;;;;;;13.90;6.00;;;;;;;20.12;80.63;100378.36;223717;1264;96540;-84
2023/06/23 01:30:32;;;;;;;12.00;6.10;;;;;;;19.91;81.84;100367.67;223171;1264;141257;-84
2023/06/23 01:35:42;;;;;;;12.60;6.40;;;;;;;19.76;83.05;100351.10;223586;1264;140359;-85
2023/06/23 01:40:44;;;;;;;12.50;5.70;;;;;;;19.57;83.89;100338.92;223002;1264;141034;-84
2023/06/23 01:45:46;;;;;;;12.90;6.10;;;;;;;19.45;84.65;100339.33;223739;1264;139786;-85
2023/06/23 01:50:47;;;;;;;10.10;5.70;;;;;;;19.34;85.35;100333.09;223194;1265;141571;-86
2023/06/23 01:55:49;;;;;;;11.20;6.30;;;;;;;19.26;85.82;100333.46;223804;1265;104359;-85
2023/06/23 02:00:50;;;;;;;11.70;6.60;;;;;;;19.15;86.95;100328.79;223186;1264;142272;-85
2023/06/23 02:05:52;;;;;;;12.70;6.80;;;;;;;19.04;87.63;100328.17;222766;1266;138904;-85
2023/06/23 02:10:54;;;;;;;13.10;6.80;;;;;;;18.97;88.38;100330.76;222775;1264;141206;-85
2023/06/23 02:15:57;;;;;;;15.40;7.00;;;;;;;18.90;89.11;100338.16;223639;1263;139051;-85
2023/06/23 02:20:58;;;;;;;12.00;7.20;;;;;;;18.83;90.21;100345.98;223155;1265;143740;-86
2023/06/23 02:26:00;;;;;;;12.10;6.40;;;;;;;18.76;90.90;100368.77;223641;1263;139039;-85
2023/06/23 02:31:04;;;;;;;17.10;7.40;;;;;;;18.73;92.30;100383.73;223250;1264;140856;-84
2023/06/23 02:36:06;;;;;;;16.50;8.30;;;;;;;18.73;92.82;100416.41;223718;1264;138975;-85
2023/06/23 02:41:08;;;;;;;13.90;9.30;;;;;;;18.75;93.11;100408.47;223036;1264;141744;-87
2023/06/23 02:46:10;;;;;;;14.80;8.60;;;;;;;18.70;94.54;100347.64;223457;1266;139767;-86
2023/06/23 02:51:14;;;;;;;18.30;8.90;;;;;;;18.62;96.19;100347.84;222856;1264;141257;-85
2023/06/23 02:56:21;;;;;;;21.20;9.40;;;;;;;18.57;96.51;100367.71;223646;1264;139035;-86
2023/06/23 03:01:26;;;;;;;13.40;8.10;;;;;;;18.56;96.84;100411.67;223251;1264;142355;-84
2023/06/23 03:06:27;;;;;;;20.00;10.50;;;;;;;18.55;98.08;100532.59;223456;1266;139190;-85
2023/06/23 03:11:27;;;;;;;17.70;9.50;;;;;;;18.42;99.58;100533.64;223061;1263;140972;-83
2023/06/23 03:16:36;;;;;;;16.80;10.20;;;;;;;18.16;99.79;100396.81;223624;1264;139063;-84
2023/06/23 03:21:38;;;;;;;19.70;9.40;;;;;;;17.98;100.00;100352.45;223039;1266;141970;-83
2023/06/23 03:26:45;;;;;;;15.40;9.80;;;;;;;17.90;100.00;100292.48;223551;1264;140318;-84
2023/06/23 03:31:47;;;;;;;17.60;8.70;;;;;;;17.74;100.00;100218.52;223054;1265;141141;-86
2023/06/23 03:36:49;;;;;;;18.40;9.00;;;;;;;17.61;100.00;100151.62;223535;1266;138989;-86
2023/06/23 03:41:50;;;;;;;16.50;9.10;;;;;;;17.52;100.00;100103.46;222901;1266;140971;-89
2023/06/23 03:46:59;;;;;;;16.60;8.80;;;;;;;17.41;100.00;100075.33;223518;1263;139413;-88
2023/06/23 03:52:03;;;;;;;15.90;9.50;;;;;;;17.37;100.00;100029.15;222477;1267;141937;-90
2023/06/23 03:57:07;;;;;;;14.90;8.70;;;;;;;17.32;100.00;99997.31;223103;1266;139445;-91
2023/06/23 04:02:11;;;;;;;16.00;9.10;;;;;;;17.28;100.00;100032.05;221684;1265;140817;-91
2023/06/23 04:07:12;;;;;;;13.40;8.50;;;;;;;17.23;100.00;100040.10;220209;1267;97949;-91
2023/06/23 04:12:16;;;;;;;17.10;9.40;;;;;;;17.24;100.00;100064.89;219448;1267;140394;-90
2023/06/23 04:17:19;;;;;;;18.90;8.40;;;;;;;17.22;100.00;100084.38;219963;1263;139701;-88
2023/06/23 04:22:22;;;;;;;13.70;8.40;;;;;;;17.25;100.00;100112.93;219305;1268;142180;-89
2023/06/23 04:27:23;;;;;;;13.60;8.20;;;;;;;17.31;100.00;100139.97;220611;1267;139217;-89
2023/06/23 04:32:24;;;;;;;13.50;8.10;;;;;;;17.35;100.00;100131.30;219273;1267;141923;-88
2023/06/23 04:37:46;;;;;;;15.00;7.00;;;;;;;17.39;100.00;100112.19;219920;1265;105568;-90
2023/06/23 04:42:55;;;;;;;13.60;7.90;;;;;;;17.39;100.00;100116.30;219378;1264;140877;-89
2023/06/23 04:48:00;;;;;;;11.80;7.70;;;;;;;17.37;100.00;100124.20;219966;1264;139024;-86
2023/06/23 04:53:05;;;;;;;17.10;7.90;;;;;;;17.38;100.00;100122.77;219205;1264;141973;-88
2023/06/23 04:58:08;;;;;;;13.50;7.90;;;;;;;17.38;100.00;100131.51;219934;1266;139833;-88
2023/06/23 05:03:09;;;;;;;14.90;7.90;;;;;;;17.36;100.00;100136.77;219526;1266;141609;-91
2023/06/23 05:08:12;;;;;;;12.30;7.90;;;;;;;17.35;100.00;100141.48;220169;1266;139228;-90
2023/06/23 05:13:17;;;;;;;13.90;7.30;;;;;;;17.34;100.00;100144.67;219747;1266;142358;-90
2023/06/23 05:18:18;;;;;;;12.90;6.80;;;;;;;17.35;100.00;100141.66;220174;1265;139081;-92
2023/06/23 05:23:19;;;;;;;12.80;7.70;;;;;;;17.36;100.00;100147.27;219579;1266;141742;-91
2023/06/23 05:28:20;;;;;;;14.50;7.20;;;;;;;17.42;100.00;100153.21;220111;1264;140303;-91
2023/06/23 05:33:24;;;;;;;13.70;7.20;;;;;;;17.44;100.00;100140.53;220075;1263;140760;-91
2023/06/23 05:38:26;;;;;;;15.40;8.00;;;;;;;17.41;100.00;100144.09;220415;1267;139407;-93
2023/06/23 05:43:27;;;;;;;10.20;6.50;;;;;;;17.44;100.00;100150.23;220310;1263;141043;-92
2023/06/23 05:48:41;;;;;;;13.30;7.50;;;;;;;17.50;100.00;100176.90;220799;1268;139117;-93
2023/06/23 05:53:43;;;;;;;12.30;6.30;;;;;;;17.56;100.00;100202.98;220059;1267;141872;-94
2023/06/23 05:58:46;;;;;;;13.00;7.10;;;;;;;17.62;100.00;100215.19;220201;1264;139510;-90
2023/06/23 06:03:50;;;;;;;12.70;7.60;;;;;;;17.65;100.00;100208.39;219238;1267;141983;-89
2023/06/23 06:08:53;;;;;;;14.50;8.80;;;;;;;17.65;100.00;100205.91;219605;1268;141438;-86
2023/06/23 06:13:57;;;;;;;12.20;8.10;;;;;;;17.65;100.00;100198.52;220016;1266;139948;-88
2023/06/23 06:19:00;;;;;;;14.30;8.50;;;;;;;17.66;100.00;100197.14;219428;1268;141152;-87
2023/06/23 06:24:03;;;;;;;14.80;8.50;;;;;;;17.64;100.00;100194.73;219866;1266;139320;-87
2023/06/23 06:29:06;;;;;;;15.80;8.70;;;;;;;17.67;100.00;100199.84;219276;1265;140926;-86
2023/06/23 06:34:09;;;;;;;15.00;9.70;;;;;;;17.68;100.00;100181.52;219746;1264;139262;-83
2023/06/23 06:39:10;;;;;;;19.40;9.80;;;;;;;17.75;100.00;100173.50;219224;1266;142123;-85
2023/06/23 06:44:11;;;;;;;15.20;8.20;;;;;;;17.76;100.00;100175.21;219851;1268;140764;-86
2023/06/23 06:49:14;;;;;;;15.20;9.10;;;;;;;17.81;100.00;100171.36;219421;1265;142055;-88
2023/06/23 06:54:16;;;;;;;11.90;7.60;;;;;;;17.85;100.00;100165.39;219835;1264;139088;-90
2023/06/23 06:59:17;;;;;;;14.80;8.30;;;;;;;17.98;100.00;100160.33;219500;1268;141577;-87
2023/06/23 07:04:19;;;;;;;11.80;7.40;;;;;;;18.08;100.00;100167.24;219782;1268;139243;-85
2023/06/23 07:09:19;;;;;;;14.30;8.10;;;;;;;18.18;100.00;100171.84;219478;1268;141978;-84
2023/06/23 07:14:19;;;;;;;13.00;6.90;;;;;;;18.30;100.00;100173.96;220117;1268;139488;-85
2023/06/23 07:19:20;;;;;;;14.40;6.90;;;;;;;18.42;100.00;100174.80;220104;1267;140438;-85
2023/06/23 07:24:20;;;;;;;12.10;7.90;;;;;;;18.50;100.00;100173.30;220462;1268;139079;-86
2023/06/23 07:29:21;;;;;;;12.10;7.80;;;;;;;18.56;100.00;100175.22;219654;1268;140933;-85
2023/06/23 07:34:22;;;;;;;12.50;7.90;;;;;;;18.76;100.00;100169.23;220395;1264;139516;-85
2023/06/23 07:39:22;;;;;;;13.30;7.40;;;;;;;19.09;100.00;100170.33;219492;1267;141955;-85
2023/06/23 07:44:22;;;;;;;13.90;7.00;;;;;;;19.31;100.00;100186.61;220316;1267;139856;-93
2023/06/23 07:49:23;;;;;;;12.50;7.20;;;;;;;19.43;100.00;100193.55;219399;1268;140823;-91
2023/06/23 07:54:23;;;;;;;11.30;7.00;;;;;;;19.49;100.00;100198.38;219904;1268;138991;-91
2023/06/23 07:59:26;;;;;;;13.20;7.80;;;;;;;19.61;100.00;100209.77;219779;1269;141193;-90
2023/06/23 08:04:27;;;;;;;12.50;6.80;;;;;;;19.80;100.00;100214.08;220032;1268;139281;-90
2023/06/23 08:09:27;;;;;;;11.50;6.80;;;;;;;20.03;100.00;100214.89;219393;1267;141965;-90
2023/06/23 08:14:28;;;;;;;11.80;6.60;;;;;;;20.34;100.00;100231.00;219917;1267;139414;-91
2023/06/23 08:19:30;;;;;;;11.00;6.20;;;;;;;20.66;100.00;100235.41;219387;1268;141714;-91
2023/06/23 08:24:30;;;;;;;12.10;6.80;;;;;;;20.98;100.00;100243.53;219911;1264;140131;-88
2023/06/23 08:29:30;;;;;;;11.40;7.50;;;;;;;21.36;100.00;100249.95;219406;1269;141520;-86
2023/06/23 08:34:31;;;;;;;12.90;6.60;;;;;;;21.57;100.00;100258.08;219912;1264;139966;-86
2023/06/23 08:39:31;;;;;;;12.40;6.30;;;;;;;21.75;100.00;100269.17;219481;1264;141244;-88
2023/06/23 08:44:35;;;;;;;14.20;6.90;;;;;;;22.03;100.00;100274.68;219986;1268;139156;-85
2023/06/23 08:49:39;;;;;;;13.10;7.00;;;;;;;22.31;100.00;100276.33;219550;1268;142576;-84
2023/06/23 08:54:40;;;;;;;10.40;6.30;;;;;;;22.61;99.58;100275.38;219763;1268;139210;-85
2023/06/23 08:59:40;;;;;;;11.70;6.20;;;;;;;23.12;99.90;100289.05;219478;1271;141879;-85
2023/06/23 09:04:41;;;;;;;11.00;5.90;;;;;;;23.73;99.55;100285.20;220007;1268;139501;-86
2023/06/23 09:09:45;;;;;;;10.00;6.20;;;;;;;24.34;96.39;100277.03;219453;1268;141237;-86
2023/06/23 09:14:48;;;;;;;9.60;5.60;;;;;;;24.32;92.57;100286.16;219862;1267;139617;-84
2023/06/23 09:19:50;;;;;;;10.70;6.10;;;;;;;24.50;92.17;100294.75;219817;1268;142643;-85
2023/06/23 09:24:50;;;;;;;10.00;5.80;;;;;;;24.85;90.24;100301.60;220156;1268;139322;-85
2023/06/23 09:30:08;;;;;;;12.20;5.90;;;;;;;25.01;89.42;100316.21;219578;1266;141006;-84
2023/06/23 09:35:09;;;;;;;10.80;6.20;;;;;;;25.10;87.18;100317.55;219760;1267;139440;-83
2023/06/23 09:40:10;;;;;;;9.90;5.80;;;;;;;25.47;87.06;100309.35;219412;1267;141531;-83
2023/06/23 09:45:17;;;;;;;10.70;6.50;;;;;;;25.72;84.98;100319.61;219795;1266;138891;-82
2023/06/23 09:50:22;;;;;;;9.70;6.20;;;;;;;26.21;86.73;100322.60;220376;1264;141646;-83
2023/06/23 09:55:22;;;;;;;9.60;6.40;;;;;;;26.99;83.22;100328.95;220273;1269;98386;-81
2023/06/23 10:00:29;;;;;;;10.00;5.50;;;;;;;27.19;79.62;100333.75;219706;1264;141265;-82
2023/06/23 10:05:35;;;;;;;8.90;5.80;;;;;;;27.06;76.77;100331.62;220377;1267;139154;-84
2023/06/23 10:10:45;;;;;;;11.60;6.40;;;;;;;26.64;76.46;100322.30;219679;1264;141380;-83
2023/06/23 10:15:45;;;;;;;10.40;5.40;;;;;;;27.14;76.05;100322.66;219932;1264;139140;-88
2023/06/23 10:20:47;;;;;;;12.70;6.20;;;;;;;27.32;74.72;100339.21;221563;1264;138601;-83
2023/06/23 10:25:54;;;;;;;9.40;5.90;;;;;;;28.16;76.03;100346.15;221645;1267;97606;-85
2023/06/23 10:30:56;;;;;;;9.50;6.10;;;;;;;29.15;73.50;100345.54;221511;1264;140966;-84
2023/06/23 10:35:57;;;;;;;10.00;5.60;;;;;;;29.85;70.04;100358.39;221357;1265;139671;-83
2023/06/23 10:40:59;;;;;;;8.70;5.90;;;;;;;30.40;68.86;100375.86;220774;1264;141331;-83
2023/06/23 10:46:03;;;;;;;10.40;6.70;;;;;;;30.67;66.49;100370.98;221263;1264;138743;-83
2023/06/23 10:51:05;;;;;;;10.20;6.00;;;;;;;30.98;64.89;100364.36;222886;1263;140165;-84
2023/06/23 10:56:05;;;;;;;10.50;6.90;;;;;;;31.43;63.93;100366.36;223669;1264;138694;-83
2023/06/23 11:01:05;;;;;;;11.30;7.10;;;;;;;31.20;59.65;100378.23;221060;1264;140805;-83
2023/06/23 11:06:08;;;;;;;9.70;6.60;;;;;;;30.76;62.16;100382.56;220345;1264;138135;-82
2023/06/23 11:11:11;;;;;;;9.70;7.40;;;;;;;30.99;61.18;100387.11;219792;1264;140354;-82
2023/06/23 11:16:17;;;;;;;9.80;7.20;;;;;;;31.13;60.72;100394.79;221777;1267;138084;-83
2023/06/23 11:21:29;;;;;;;11.70;7.10;;;;;;;31.19;59.93;100403.70;219682;1267;140674;-84
2023/06/23 11:26:30;;;;;;;11.50;7.30;;;;;;;31.43;58.19;100404.44;220115;1264;138329;-83
2023/06/23 11:31:30;;;;;;;9.50;6.60;;;;;;;31.24;57.83;100408.75;219528;1264;141635;-83
2023/06/23 11:36:32;;;;;;;10.60;6.60;;;;;;;31.06;58.44;100419.36;220091;1264;138071;-83
2023/06/23 11:41:32;;;;;;;8.60;6.30;;;;;;;31.02;57.57;100421.48;219792;1267;140722;-83
2023/06/23 11:46:36;;;;;;;10.10;7.20;;;;;;;30.68;57.66;100423.11;220301;1264;138716;-83
2023/06/23 11:51:37;;;;;;;11.10;7.10;;;;;;;30.30;57.91;100419.26;219769;1264;140311;-83
2023/06/23 11:56:41;;;;;;;9.80;7.50;;;;;;;30.18;59.13;100411.73;221044;1264;139080;-83
2023/06/23 12:01:41;;;;;;;11.20;6.90;;;;;;;30.10;59.16;100404.47;220834;1264;141169;-83
2023/06/23 12:06:42;;;;;;;9.30;6.70;;;;;;;29.96;59.08;100408.74;221293;1267;138747;-82
2023/06/23 12:11:42;;;;;;;11.40;7.90;;;;;;;29.68;59.60;100408.98;220907;1264;140243;-84
2023/06/23 12:16:43;;;;;;;11.40;8.50;;;;;;;29.14;60.17;100413.66;221013;1264;138480;-83
2023/06/23 12:21:44;;;;;;;12.90;7.90;;;;;;;28.67;61.62;100418.14;220586;1266;141137;-83
2023/06/23 12:26:44;;;;;;;12.60;8.60;;;;;;;28.57;62.49;100414.87;221421;1264;139331;-83
2023/06/23 12:31:58;;;;;;;15.00;8.60;;;;;;;28.82;63.03;100412.97;220840;1264;140706;-83
2023/06/23 12:37:18;;;;;;;11.60;7.90;;;;;;;29.03;62.48;100419.30;222576;1264;96703;-84
2023/06/23 12:42:19;;;;;;;13.20;8.80;;;;;;;28.91;60.97;100417.85;223172;1264;140598;-85
2023/06/23 12:47:20;;;;;;;12.20;7.50;;;;;;;28.23;61.68;100419.58;222139;1265;138402;-83
2023/06/23 12:52:20;;;;;;;11.70;7.40;;;;;;;27.94;63.22;100418.41;219877;1264;140973;-83
2023/06/23 12:57:21;;;;;;;15.20;8.60;;;;;;;28.12;63.36;100423.05;220131;1264;138290;-84
2023/06/23 13:02:21;;;;;;;14.70;9.00;;;;;;;27.96;63.36;100421.52;219726;1264;140639;-84
2023/06/23 13:07:22;;;;;;;11.30;7.60;;;;;;;27.58;64.11;100416.93;220396;1264;99303;-83
2023/06/23 13:12:22;;;;;;;12.00;7.50;;;;;;;27.50;64.76;100415.90;219770;1264;139524;-84
2023/06/23 13:17:23;;;;;;;14.70;7.80;;;;;;;27.53;64.38;100415.11;220145;1267;138712;-83
2023/06/23 13:22:25;;;;;;;15.30;8.20;;;;;;;27.54;65.12;100408.71;219726;1267;141949;-84
2023/06/23 13:27:26;;;;;;;11.10;8.80;;;;;;;27.71;65.11;100416.52;220141;1267;138542;-84
2023/06/23 13:32:26;;;;;;;12.10;7.90;;;;;;;27.84;65.38;100419.98;219628;1264;141275;-83
2023/06/23 13:37:27;;;;;;;11.30;8.80;;;;;;;27.79;65.68;100422.52;220701;1264;97943;-85
2023/06/23 13:42:27;;;;;;;14.30;8.50;;;;;;;27.71;66.06;100420.05;220440;1264;138728;-83
2023/06/23 13:47:28;;;;;;;12.90;8.30;;;;;;;27.99;65.90;100411.69;221526;1263;138789;-83
2023/06/23 13:52:28;;;;;;;15.10;8.50;;;;;;;27.83;65.12;100406.69;220962;1264;141437;-84
2023/06/23 13:57:29;;;;;;;12.50;8.70;;;;;;;27.47;65.51;100405.67;221276;1264;138448;-83
2023/06/23 14:02:29;;;;;;;13.00;9.20;;;;;;;27.40;65.77;100406.14;220953;1264;141899;-82
2023/06/23 14:07:30;;;;;;;10.50;7.80;;;;;;;27.15;66.32;100418.02;221529;1263;96572;-83
2023/06/23 14:12:30;;;;;;;14.20;9.00;;;;;;;27.20;66.63;100422.48;220945;1264;141258;-83
2023/06/23 14:17:31;;;;;;;12.30;7.70;;;;;;;27.02;66.65;100431.58;221400;1264;138870;-82
2023/06/23 14:22:31;;;;;;;11.70;8.00;;;;;;;27.08;67.18;100438.27;221343;1263;140758;-85
2023/06/23 14:27:32;;;;;;;11.40;8.10;;;;;;;27.11;66.25;100444.88;223717;1264;138325;-82
2023/06/23 14:32:32;;;;;;;14.30;8.60;;;;;;;26.91;67.14;100438.52;223005;1263;140893;-82
2023/06/23 14:37:32;;;;;;;11.90;8.10;;;;;;;26.88;67.16;100436.33;220673;1264;98421;-82
2023/06/23 14:42:33;;;;;;;12.30;8.90;;;;;;;26.86;67.41;100445.89;219722;1264;139799;-82
2023/06/23 14:47:35;;;;;;;13.60;7.70;;;;;;;26.57;67.16;100444.65;220090;1264;138325;-79
2023/06/23 14:52:36;;;;;;;11.90;8.00;;;;;;;26.22;68.72;100444.27;219581;1264;141702;-81
2023/06/23 14:57:37;;;;;;;11.30;8.10;;;;;;;26.02;69.59;100441.65;220064;1264;138464;-82
2023/06/23 15:02:37;;;;;;;13.60;7.60;;;;;;;25.93;69.90;100442.69;219336;1264;142050;-82
2023/06/23 15:07:38;;;;;;;12.10;7.90;;;;;;;25.91;70.17;100456.39;219873;1264;99180;-82
2023/06/23 15:12:38;;;;;;;12.90;8.40;;;;;;;25.81;70.05;100460.00;219541;1264;140650;-82
2023/06/23 15:17:38;;;;;;;14.20;9.50;;;;;;;25.68;70.72;100462.48;220054;1267;138254;-82
2023/06/23 15:22:39;;;;;;;11.90;8.80;;;;;;;25.67;71.11;100459.46;219460;1264;139848;-82
2023/06/23 15:27:39;;;;;;;10.90;6.70;;;;;;;25.63;71.27;100469.30;220221;1264;138258;-81
2023/06/23 15:32:40;;;;;;;13.30;8.40;;;;;;;25.62;71.30;100472.38;220277;1264;141634;-82
2023/06/23 15:37:41;;;;;;;15.40;8.30;;;;;;;25.54;71.01;100475.48;221395;1263;97905;-82
2023/06/23 15:42:42;;;;;;;13.80;8.70;;;;;;;25.38;71.88;100477.52;220602;1266;140052;-82
2023/06/23 15:47:42;;;;;;;13.60;8.50;;;;;;;25.37;71.62;100481.74;221380;1264;138078;-82
2023/06/23 15:52:43;;;;;;;14.90;8.90;;;;;;;25.43;71.87;100493.20;220836;1264;140355;-81
2023/06/23 15:57:43;;;;;;;11.50;7.70;;;;;;;25.39;72.40;100501.86;221117;1264;138847;-81
2023/06/23 16:02:43;;;;;;;11.40;8.10;;;;;;;25.34;72.50;100506.46;220599;1264;142362;-82
2023/06/23 16:07:47;;;;;;;11.70;8.20;;;;;;;25.35;72.29;100506.91;221276;1263;96646;-82
2023/06/23 16:12:47;;;;;;;12.30;8.60;;;;;;;25.27;72.62;100520.02;222154;1263;140513;-82
2023/06/23 16:17:50;;;;;;;14.10;8.70;;;;;;;25.13;73.13;100521.23;223863;1264;139297;-82
2023/06/23 16:22:50;;;;;;;13.70;9.00;;;;;;;24.97;73.71;100519.18;221763;1264;141167;-82
2023/06/23 16:27:51;;;;;;;13.20;9.10;;;;;;;24.76;74.64;100514.93;219977;1264;139126;-81
2023/06/23 16:32:51;;;;;;;14.60;8.90;;;;;;;24.61;74.59;100515.70;219606;1264;140896;-82
2023/06/23 16:37:51;;;;;;;15.50;9.20;;;;;;;24.50;76.09;100515.88;220138;1264;97950;-82
2023/06/23 16:42:52;;;;;;;15.30;9.60;;;;;;;24.33;76.62;100516.30;219476;1264;142349;-81
2023/06/23 16:47:52;;;;;;;12.50;8.50;;;;;;;24.17;77.42;100520.39;219900;1264;139191;-81
2023/06/23 16:52:53;;;;;;;13.10;9.00;;;;;;;24.07;77.88;100522.55;219263;1264;142951;-80
2023/06/23 16:57:54;;;;;;;12.70;8.80;;;;;;;23.95;79.08;100524.85;219849;1265;139269;-81
2023/06/23 17:02:55;;;;;;;16.60;10.20;;;;;;;23.86;79.12;100523.77;219459;1264;141329;-81
2023/06/23 17:07:56;;;;;;;14.70;9.50;;;;;;;23.74;80.11;100529.48;220258;1264;97988;-81
2023/06/23 17:12:57;;;;;;;13.30;10.20;;;;;;;23.59;80.48;100539.48;219721;1265;141396;-81
2023/06/23 17:17:58;;;;;;;15.60;12.20;;;;;;;23.46;81.16;100540.25;220298;1264;139637;-82
2023/06/23 17:22:58;;;;;;;12.60;9.90;;;;;;;23.31;82.02;100544.70;220572;1267;141169;-81
2023/06/23 17:27:59;;;;;;;15.30;11.90;;;;;;;23.19;82.06;100544.63;220953;1267;140129;-82
2023/06/23 17:32:59;;;;;;;11.30;8.20;;;;;;;23.07;82.57;100544.19;220570;1264;141602;-82
2023/06/23 17:37:59;;;;;;;14.90;10.00;;;;;;;22.99;82.89;100546.17;221153;1264;139119;-83
2023/06/23 17:43:00;;;;;;;13.70;9.40;;;;;;;22.90;83.38;100553.73;220600;1264;142249;-82
2023/06/23 17:48:00;;;;;;;16.50;10.20;;;;;;;22.83;83.31;100563.93;220898;1264;140537;-83
2023/06/23 17:53:01;;;;;;;17.30;11.00;;;;;;;22.76;83.29;100564.49;220616;1267;141674;-83
2023/06/23 17:58:01;;;;;;;13.30;9.30;;;;;;;22.68;84.33;100566.24;221406;1264;139313;-83
2023/06/23 18:03:02;;;;;;;14.20;10.50;;;;;;;22.58;84.64;100570.14;222957;1263;141880;-83
2023/06/23 18:08:03;;;;;;;16.50;12.00;;;;;;;22.49;86.23;100580.58;223780;1264;140014;-84
2023/06/23 18:13:03;;;;;;;14.60;10.30;;;;;;;22.41;87.01;100586.19;220876;1265;142730;-83
2023/06/23 18:18:05;;;;;;;15.80;10.90;;;;;;;22.33;86.27;100593.20;220131;1267;139200;-83
2023/06/23 18:23:05;;;;;;;16.10;10.70;;;;;;;22.24;86.85;100596.45;219735;1263;141390;-83
2023/06/23 18:28:06;;;;;;;13.10;9.30;;;;;;;22.16;87.96;100597.31;219880;1266;139228;-82
2023/06/23 18:33:07;;;;;;;11.50;7.40;;;;;;;22.06;88.11;100599.06;219536;1266;141402;-82
2023/06/23 18:38:07;;;;;;;14.20;8.50;;;;;;;21.97;88.17;100599.77;219820;1264;139762;-82
2023/06/23 18:43:07;;;;;;;13.20;7.90;;;;;;;21.89;88.48;100600.20;219486;1264;140711;-83
2023/06/23 18:48:08;;;;;;;12.00;8.50;;;;;;;21.82;88.78;100592.44;220057;1264;138783;-83
2023/06/23 18:53:08;;;;;;;14.10;8.40;;;;;;;21.77;88.56;100598.29;219280;1266;141093;-85
2023/06/23 18:58:09;;;;;;;16.30;9.80;;;;;;;21.73;89.44;100595.83;220063;1264;139008;-84
2023/06/23 19:03:09;;;;;;;12.60;8.80;;;;;;;21.67;90.58;100595.45;219635;1264;141752;-84
2023/06/23 19:08:09;;;;;;;14.40;9.90;;;;;;;21.59;91.28;100604.75;220732;1265;139580;-84
2023/06/23 19:13:10;;;;;;;15.10;10.40;;;;;;;21.50;91.92;100607.98;220705;1264;141633;-83
2023/06/23 19:18:10;;;;;;;11.90;8.60;;;;;;;21.42;92.59;100618.23;221116;1264;140009;-84
2023/06/23 19:23:11;;;;;;;13.10;8.10;;;;;;;21.32;92.61;100626.19;220768;1263;141662;-84
2023/06/23 19:28:11;;;;;;;15.60;8.30;;;;;;;21.26;92.39;100647.16;221158;1264;139294;-84
2023/06/23 19:33:12;;;;;;;12.20;7.30;;;;;;;21.22;93.60;100656.48;220734;1264;142267;-85
2023/06/23 19:38:12;;;;;;;14.00;9.40;;;;;;;21.17;93.29;100666.40;221144;1264;138926;-85
2023/06/23 19:43:13;;;;;;;13.20;8.40;;;;;;;21.14;93.48;100675.91;220671;1264;141281;-85
2023/06/23 19:48:13;;;;;;;12.90;8.50;;;;;;;21.12;93.43;100681.73;221959;1264;138776;-85
2023/06/23 19:53:14;;;;;;;13.30;8.70;;;;;;;21.08;93.71;100690.64;223247;1264;140635;-84
2023/06/23 19:58:18;;;;;;;12.40;8.20;;;;;;;21.06;93.91;100700.46;223492;1265;139671;-84
2023/06/23 20:03:19;;;;;;;14.40;8.30;;;;;;;21.00;95.28;100699.98;219729;1266;141822;-83
2023/06/23 20:08:19;;;;;;;18.80;8.00;;;;;;;20.87;95.36;100704.88;220280;1267;140748;-83
2023/06/23 20:13:20;;;;;;;12.50;7.50;;;;;;;20.73;95.08;100709.30;219738;1267;141464;-83
2023/06/23 20:18:20;;;;;;;11.20;6.70;;;;;;;20.61;94.78;100713.52;220098;1266;139805;-83
2023/06/23 20:23:21;;;;;;;11.60;6.10;;;;;;;20.51;94.68;100715.46;219531;1265;140789;-82
2023/06/23 20:28:22;;;;;;;11.40;6.30;;;;;;;20.41;94.83;100719.48;220065;1265;139512;-83
2023/06/23 20:33:22;;;;;;;11.60;6.00;;;;;;;20.32;94.55;100722.40;219460;1264;140385;-84
2023/06/23 20:38:23;;;;;;;13.50;6.40;;;;;;;20.27;94.25;100717.73;220308;1264;139019;-84
2023/06/23 20:43:25;;;;;;;11.60;5.90;;;;;;;20.20;94.53;100716.70;219453;1265;142321;-83
2023/06/23 20:48:26;;;;;;;13.90;6.50;;;;;;;20.12;94.46;100725.45;220200;1268;140147;-85
2023/06/23 20:53:27;;;;;;;12.00;5.70;;;;;;;20.04;94.78;100727.75;219797;1265;140948;-85
2023/06/23 20:58:27;;;;;;;10.30;5.60;;;;;;;19.98;94.67;100726.52;221058;1264;139310;-85
2023/06/23 21:03:28;;;;;;;10.30;5.00;;;;;;;19.95;94.63;100731.30;220766;1267;141189;-84
2023/06/23 21:08:28;;;;;;;10.20;6.40;;;;;;;19.92;94.65;100739.59;221916;1264;139058;-84
2023/06/23 21:13:29;;;;;;;10.00;6.20;;;;;;;19.88;94.38;100745.75;221107;1263;141401;-82
2023/06/23 21:18:30;;;;;;;13.90;6.90;;;;;;;19.82;94.31;100747.55;221411;1265;139182;-84
2023/06/23 21:23:30;;;;;;;13.10;5.60;;;;;;;19.75;94.60;100755.52;221124;1266;140669;-85
2023/06/23 21:28:32;;;;;;;14.10;5.70;;;;;;;19.68;94.40;100761.40;221340;1265;139173;-85
2023/06/23 21:33:33;;;;;;;12.20;5.80;;;;;;;19.61;94.44;100766.83;220363;1267;141890;-84
2023/06/23 21:38:33;;;;;;;10.60;5.40;;;;;;;19.55;93.97;100771.11;222733;1264;139246;-84
2023/06/23 21:43:34;;;;;;;13.60;5.60;;;;;;;19.48;93.79;100775.61;223172;1264;141766;-85
2023/06/23 21:48:41;;;;;;;10.70;5.80;;;;;;;19.42;93.41;100776.85;222197;1264;139746;-85
2023/06/23 21:53:42;;;;;;;12.60;5.60;;;;;;;19.35;93.21;100776.36;219709;1266;140800;-83
2023/06/23 21:58:43;;;;;;;11.40;5.70;;;;;;;19.28;93.12;100785.02;220049;1267;139055;-83
2023/06/23 22:03:43;;;;;;;10.90;5.50;;;;;;;19.20;92.84;100791.84;219890;1266;141432;-84
2023/06/23 22:08:43;;;;;;;11.00;5.80;;;;;;;19.13;92.90;100802.73;220545;1264;139155;-83
2023/06/23 22:13:44;;;;;;;11.50;5.20;;;;;;;19.06;93.06;100809.15;220147;1265;141273;-84
2023/06/23 22:18:44;;;;;;;10.40;5.80;;;;;;;19.00;92.88;100815.56;220196;1265;139070;-84
2023/06/23 22:23:45;;;;;;;9.80;5.70;;;;;;;18.93;93.17;100823.64;219570;1264;140983;-85
2023/06/23 22:28:45;;;;;;;12.60;5.90;;;;;;;18.85;93.20;100830.77;220144;1265;139057;-84
2023/06/23 22:33:46;;;;;;;8.90;5.30;;;;;;;18.76;93.30;100837.94;219877;1263;141137;-85